Hayward Executive, CA

9:02 AM PDT on September 20, 2014 (GMT -0700)
Hayward Executive | Change Station
CLOSE
Current Station
Airport
Location: Hayward,
Elevation: 46 ft
Nearby Weather Stations

Elev 46 ft 37.66 °N, 122.12 °W | Updated 8 minutes ago

Overcast
Overcast
67 °F
Feels Like 67 °F
N
4
Wind Variable Wind from North

Today
High -- | Low -- °F
--% Chance of Precip.
Yesterday
High -- | Low -- °F
Precip. -- in
6:54 AM 7:08 PM
Waning Crescent, 11% visible
Pressure 29.96 in
Visibility 10.0 miles
Clouds Overcast 1100 ft
Dew Point 62 °F
Humidity 84%
Rainfall 0.00 in
Snow Depth 1 in , 1 in , 1 in
UV 1 out of 12
Pollen 4.00 out of 12
PM2.5 Good
Flu Activity Not available.
METAR KHWD 201554Z AUTO 36003KT 10SM OVC011 19/17 A2993 RMK AO2 SLP145 T01940167

More Conditions Fewer Conditions

Pressure 29.96 in
Visibility 10.0 miles
Clouds Overcast 1100 ft
Dew Point 62 °F
Humidity 84%
Rainfall 0.00 in
Snow Depth 1 in , 1 in , 1 in
UV 1 out of 12
Pollen 4.00 out of 12
PM2.5 Good
Flu Activity Not available.
METAR KHWD 201554Z AUTO 36003KT 10SM OVC011 19/17 A2993 RMK AO2 SLP145 T01940167

More Conditions Fewer Conditions

10-Day Weather Forecast

Almanac

Astronomy

Sep. 20, 2014 Rise Set
Actual Time 6:54 AM PDT 7:08 PM PDT
Civil Twilight 6:28 AM PDT 7:34 PM PDT
Nautical Twilight 5:57 AM PDT 8:05 PM PDT
Astronomical Twilight 5:26 AM PDT 8:36 PM PDT
Moon 3:41 AM PDT 5:12 PM PDT
Length of Visible Light 13h 06m
Length of Day
12h 13m
Tomorrow will be 2m 24s shorter.
Waning Crescent, 11% of the Moon is Illuminated
Today
Waning Crescent
Sep 24
New
Oct 1
First Quarter
Oct 8
Full
Oct 15
Last Quarter

Today's Extremes

State Highs State Lows

Community

WunderPhotos

Upload Photos

1,754,888 photos uploaded!

Nearby

Air Quality

  Air Quality AQ Index Pollutant
Yesterday Good
PM2.5
Yesterday Good
OZONE
Current Good
PM2.5
Saturday Moderate
PM2.5
Sunday Moderate
PM2.5
Monday Good
PM2.5
Tuesday Good
PM2.5
Wednesday Good
OZONE

Snow Depth

Station Depth Elevation
Adin Mountain 1 in 6200 ft
Summit Meadow 1 in 9122 ft
Spratt Creek 1 in 6200 ft
Sonora Pass 0 in 8800 ft
Monitor Pass 0 in 8350 ft

Earthquake Activity

City Distance Mag. Time & Date
Livermore, California 21 miles 2.6 3:37 AM PDT
2014-09-19
The Geysers, California 82 miles 2.5 11:29 PM PDT
2014-09-17
Minimum magnitude displayed is 2.5.

Coastal Water Temperatures

Place Temperature
No Stations Reporting

Nearby Weather Stations